Terminal Aerodrome Forecast
Issued by NWS

Home | Current Version | Previous Version | Text Only | Print | Product List | Glossary On
Versions: 1 2 3 4 5 6 7 8 9 10 11 12 13 14 15 16 17 18 19 20 21 22 23 24 25 26 27 28 29 30 31 32 33 34 35 36 37 38 39 40 41 42 43 44 45 46 47 48 49 50
000
FTAK31 PAFC 170214 AAA
TAFAVD
TAF AMD
PAVD 170214Z 1702/1724 25010KT P6SM VCSH SCT045 BKN080
      TEMPO 1702/1703 28012G20KT 5SM -TSRA BR BKN040CB
     FM170600 VRB03KT P6SM SCT080 BKN150
     FM172000 24010KT P6SM FEW040 BKN080
     AMD LTD TO CLD VIS AND WIND=

USA.gov is the U.S. government's official web portal to all federal, state and local government web resources and services.